createdAt,value
2023-05-12T00:00:45.830Z,101603.94
2023-05-12T00:03:13.174Z,101603.75
2023-05-12T00:05:45.234Z,101604.56
2023-05-12T00:08:12.474Z,101598.47
2023-05-12T00:10:39.630Z,101599.50
2023-05-12T00:13:06.769Z,101598.00
2023-05-12T00:15:33.905Z,101601.38
2023-05-12T00:18:01.287Z,101589.00
2023-05-12T00:20:28.331Z,101586.34
2023-05-12T00:26:24.625Z,101578.91
2023-05-12T00:28:51.779Z,101579.88
2023-05-12T00:31:19.079Z,101580.00
2023-05-12T00:33:46.308Z,101577.03
2023-05-12T00:36:13.559Z,101571.84
2023-05-12T00:38:41.562Z,101576.16
2023-05-12T00:41:09.292Z,101564.44
2023-05-12T00:43:36.836Z,101567.06
2023-05-12T00:46:05.780Z,101569.81
2023-05-12T00:48:33.566Z,101564.44
2023-05-12T00:51:01.081Z,101565.03
2023-05-12T00:53:37.599Z,101561.38
2023-05-12T00:56:13.304Z,101563.97
2023-05-12T00:58:40.344Z,101553.31
2023-05-12T01:01:08.037Z,101547.81
2023-05-12T01:03:35.490Z,101544.31
2023-05-12T01:06:27.093Z,101546.88
2023-05-12T01:12:56.438Z,101551.19
2023-05-12T01:15:25.187Z,101544.97
2023-05-12T01:18:02.048Z,101537.91
2023-05-12T01:20:30.933Z,101542.63
2023-05-12T01:22:58.645Z,101542.44
2023-05-12T01:26:00.872Z,101536.13
2023-05-12T01:28:28.530Z,101537.06
2023-05-12T01:30:56.022Z,101535.47
2023-05-12T01:33:23.208Z,101520.63
2023-05-12T01:35:50.351Z,101528.25
2023-05-12T01:38:18.327Z,101531.53
2023-05-12T01:40:45.532Z,101525.91
2023-05-12T01:43:12.706Z,101529.34
2023-05-12T01:45:42.802Z,101518.31
2023-05-12T01:48:10.344Z,101518.16
2023-05-12T01:50:37.588Z,101522.41
2023-05-12T01:53:11.279Z,101514.44
2023-05-12T01:55:38.449Z,101511.84
2023-05-12T01:58:05.798Z,101506.66
2023-05-12T02:00:33.894Z,101508.44
2023-05-12T02:03:04.101Z,101502.19
2023-05-12T02:05:31.787Z,101500.47
2023-05-12T02:07:59.402Z,101511.78
2023-05-12T02:10:26.907Z,101504.09
2023-05-12T02:12:54.282Z,101496.16
2023-05-12T02:15:21.374Z,101504.09
2023-05-12T02:17:50.780Z,101494.75
2023-05-12T02:20:21.986Z,101493.09
2023-05-12T02:22:49.345Z,101488.03
2023-05-12T02:25:16.601Z,101487.34
2023-05-12T02:27:45.418Z,101489.06
2023-05-12T02:30:13.170Z,101487.41
2023-05-12T02:32:40.377Z,101484.06
2023-05-12T02:35:08.646Z,101485.06
2023-05-12T02:37:37.187Z,101483.22
2023-05-12T02:40:05.179Z,101485.00
2023-05-12T02:42:35.863Z,101488.44
2023-05-12T02:45:03.161Z,101483.94
2023-05-12T02:47:33.300Z,101489.13
2023-05-12T02:50:00.695Z,101488.09
2023-05-12T02:52:27.819Z,101485.34
2023-05-12T02:54:56.282Z,101481.59
2023-05-12T02:57:23.427Z,101487.53
2023-05-12T02:59:50.638Z,101486.09
2023-05-12T03:02:17.844Z,101493.97
2023-05-12T03:04:44.940Z,101492.84
2023-05-12T03:07:12.227Z,101492.88
2023-05-12T03:09:39.479Z,101488.41
2023-05-12T03:12:06.843Z,101491.53
2023-05-12T03:14:33.791Z,101491.38
2023-05-12T03:17:00.882Z,101492.34
2023-05-12T03:19:28.461Z,101484.41
2023-05-12T03:21:55.677Z,101481.94
2023-05-12T03:24:22.971Z,101487.06
2023-05-12T03:26:50.131Z,101490.50
2023-05-12T03:29:17.243Z,101493.63
2023-05-12T03:31:44.645Z,101494.25
2023-05-12T03:34:11.794Z,101484.72
2023-05-12T03:36:38.992Z,101483.09
2023-05-12T03:39:06.112Z,101481.38
2023-05-12T03:41:37.496Z,101482.94
2023-05-12T03:44:06.189Z,101487.25
2023-05-12T03:46:45.896Z,101475.97
2023-05-12T03:49:14.027Z,101477.69
2023-05-12T03:51:41.921Z,101472.47
2023-05-12T03:54:09.530Z,101475.03
2023-05-12T03:56:36.756Z,101474.16
2023-05-12T03:59:06.942Z,101469.50
2023-05-12T04:01:35.106Z,101466.91
2023-05-12T04:04:03.184Z,101475.53
2023-05-12T04:06:38.134Z,101472.03
2023-05-12T04:09:05.653Z,101473.00
2023-05-12T04:11:32.712Z,101467.63
2023-05-12T04:14:01.693Z,101464.94
2023-05-12T04:16:30.387Z,101470.09
2023-05-12T04:18:59.070Z,101467.41
2023-05-12T04:21:26.306Z,101472.53
2023-05-12T04:23:53.627Z,101470.31
2023-05-12T04:26:22.419Z,101471.22
2023-05-12T04:28:49.530Z,101468.38
2023-05-12T04:31:16.923Z,101468.47
2023-05-12T04:33:45.832Z,101471.28
2023-05-12T04:36:14.940Z,101465.31
2023-05-12T04:38:43.548Z,101463.34
2023-05-12T04:41:12.733Z,101467.72
2023-05-12T04:46:13.153Z,101468.22
2023-05-12T04:48:43.905Z,101470.81
2023-05-12T04:51:13.599Z,101474.25
2023-05-12T04:53:49.989Z,101474.16
2023-05-12T04:56:17.650Z,101474.81
2023-05-12T04:58:45.388Z,101474.44
2023-05-12T05:01:14.110Z,101477.25
2023-05-12T05:03:41.440Z,101481.50
2023-05-12T05:06:09.688Z,101479.53
2023-05-12T05:08:37.235Z,101477.00
2023-05-12T05:14:52.307Z,101481.19
2023-05-12T05:17:20.243Z,101495.31
2023-05-12T05:19:56.003Z,101503.66
2023-05-12T05:22:29.991Z,101498.44
2023-05-12T05:24:57.561Z,101510.94
2023-05-12T05:27:24.635Z,101509.13
2023-05-12T05:29:52.052Z,101503.56
2023-05-12T05:32:19.089Z,101512.72
2023-05-12T05:34:46.179Z,101515.88
2023-05-12T05:37:13.962Z,101520.94
2023-05-12T05:39:43.605Z,101523.53
2023-05-12T05:42:42.414Z,101521.09
2023-05-12T05:45:10.729Z,101523.25
2023-05-12T05:47:38.856Z,101526.50
2023-05-12T05:50:07.515Z,101526.59
2023-05-12T05:52:36.801Z,101529.28
2023-05-12T05:55:04.339Z,101526.25
2023-05-12T05:57:31.720Z,101525.75
2023-05-12T06:00:00.708Z,101530.94
2023-05-12T06:02:28.617Z,101532.03
2023-05-12T06:05:17.517Z,101518.22
2023-05-12T06:07:45.813Z,101518.28
2023-05-12T06:10:12.912Z,101522.66
2023-05-12T06:12:41.449Z,101523.88
2023-05-12T06:15:08.812Z,101529.38
2023-05-12T06:17:35.979Z,101524.25
2023-05-12T06:20:06.133Z,101534.72
2023-05-12T06:22:35.012Z,101535.78
2023-05-12T06:25:02.721Z,101529.31
2023-05-12T06:27:29.988Z,101539.28
2023-05-12T06:29:57.074Z,101538.00
2023-05-12T06:32:24.413Z,101534.94
2023-05-12T06:34:51.420Z,101532.56
2023-05-12T06:37:18.456Z,101531.97
2023-05-12T06:39:45.444Z,101538.38
2023-05-12T06:42:12.732Z,101528.25
2023-05-12T06:44:42.530Z,101536.72
2023-05-12T06:47:10.083Z,101533.88
2023-05-12T06:49:38.970Z,101545.53
2023-05-12T06:52:07.113Z,101539.13
2023-05-12T06:54:34.434Z,101539.63
2023-05-12T06:57:01.506Z,101534.41
2023-05-12T06:59:28.777Z,101542.31
2023-05-12T07:01:56.257Z,101546.84
2023-05-12T07:04:25.042Z,101556.78
2023-05-12T07:06:53.409Z,101548.81
2023-05-12T07:09:20.654Z,101550.19
2023-05-12T07:11:47.987Z,101547.84
2023-05-12T07:14:15.385Z,101544.78
2023-05-12T07:16:42.417Z,101540.97
2023-05-12T07:19:09.963Z,101538.34
2023-05-12T07:21:37.541Z,101535.50
2023-05-12T07:24:06.549Z,101528.16
2023-05-12T07:26:33.775Z,101530.69
2023-05-12T07:29:01.401Z,101539.91
2023-05-12T07:31:29.195Z,101532.41
2023-05-12T07:33:56.677Z,101526.53
2023-05-12T07:36:24.246Z,101520.81
2023-05-12T07:38:52.361Z,101511.75
2023-05-12T07:41:19.889Z,101515.28
2023-05-12T07:43:46.897Z,101517.97
2023-05-12T07:46:14.109Z,101527.19
2023-05-12T07:48:41.105Z,101489.34
2023-05-12T07:51:08.564Z,101516.19
2023-05-12T07:53:35.755Z,101512.75
2023-05-12T07:56:03.852Z,101515.72
2023-05-12T07:58:31.307Z,101515.91
2023-05-12T08:01:00.619Z,101516.00
2023-05-12T08:03:27.901Z,101517.81
2023-05-12T08:05:55.968Z,101516.31
2023-05-12T08:08:23.028Z,101514.66
2023-05-12T08:10:50.176Z,101509.41
2023-05-12T08:13:17.737Z,101518.31
2023-05-12T08:15:46.689Z,101519.28
2023-05-12T08:18:13.810Z,101522.06
2023-05-12T08:20:40.938Z,101523.94
2023-05-12T08:23:08.081Z,101525.09
2023-05-12T08:25:36.557Z,101524.94
2023-05-12T08:28:04.069Z,101524.00
2023-05-12T08:30:31.020Z,101524.69
2023-05-12T08:32:58.525Z,101521.25
2023-05-12T08:35:26.936Z,101524.63
2023-05-12T08:37:54.282Z,101519.34
2023-05-12T08:40:22.313Z,101522.63
2023-05-12T08:42:56.332Z,101526.38
2023-05-12T08:45:24.135Z,101520.78
2023-05-12T08:47:52.191Z,101524.53
2023-05-12T08:50:21.901Z,101525.47
2023-05-12T08:52:50.078Z,101527.09
2023-05-12T08:55:18.461Z,101523.41
2023-05-12T08:57:48.785Z,101519.81
2023-05-12T09:00:16.658Z,101532.03
2023-05-12T09:02:53.013Z,101525.72
2023-05-12T09:05:24.445Z,101519.72
2023-05-12T09:07:52.544Z,101525.16
2023-05-12T09:10:34.200Z,101522.59
2023-05-12T09:13:13.203Z,101524.38
2023-05-12T09:15:43.375Z,101521.59
2023-05-12T09:18:10.644Z,101522.50
2023-05-12T09:20:37.945Z,101507.22
2023-05-12T09:23:21.111Z,101513.38
2023-05-12T09:25:59.484Z,101522.16
2023-05-12T09:28:34.530Z,101525.56
2023-05-12T09:31:01.840Z,101521.91
2023-05-12T09:33:29.360Z,101525.41
2023-05-12T09:35:56.989Z,101525.50
2023-05-12T09:38:23.940Z,101519.63
2023-05-12T09:40:51.137Z,101518.13
2023-05-12T09:43:18.139Z,101520.91
2023-05-12T09:45:48.187Z,101519.34
2023-05-12T09:48:15.270Z,101512.31
2023-05-12T09:50:47.701Z,101513.94
2023-05-12T09:53:16.150Z,101512.09
2023-05-12T09:55:44.488Z,101515.59
2023-05-12T09:58:11.695Z,101519.91
2023-05-12T10:01:06.000Z,101525.16
2023-05-12T10:03:30.548Z,101516.28
2023-05-12T10:06:02.630Z,101526.75
2023-05-12T10:08:36.675Z,101525.88
2023-05-12T10:11:05.130Z,101520.53
2023-05-12T10:13:33.905Z,101514.38
2023-05-12T10:16:01.618Z,101510.91
2023-05-12T10:18:28.906Z,101516.28
2023-05-12T10:20:58.040Z,101512.78
2023-05-12T10:23:25.777Z,101510.28
2023-05-12T10:25:54.044Z,101506.88
2023-05-12T10:28:21.078Z,101505.13
2023-05-12T10:30:49.247Z,101501.66
2023-05-12T10:33:16.397Z,101505.28
2023-05-12T10:35:44.338Z,101504.34
2023-05-12T10:38:13.583Z,101500.84
2023-05-12T10:40:52.112Z,101504.34
2023-05-12T10:43:23.429Z,101497.38
2023-05-12T10:46:09.813Z,101486.84
2023-05-12T10:48:39.265Z,101479.88
2023-05-12T10:51:10.332Z,101480.84
2023-05-12T10:53:49.176Z,101479.13
2023-05-12T10:56:28.789Z,101475.59
2023-05-12T10:59:10.357Z,101477.41
2023-05-12T11:01:38.186Z,101465.00
2023-05-12T11:04:17.853Z,101482.59
2023-05-12T11:06:46.770Z,101470.31
2023-05-12T11:09:15.457Z,101475.63
2023-05-12T11:11:45.750Z,101473.84
2023-05-12T11:14:13.636Z,101472.09
2023-05-12T11:16:47.241Z,101473.84
2023-05-12T11:19:14.468Z,101469.38
2023-05-12T11:21:42.174Z,101475.56
2023-05-12T11:24:13.661Z,101469.44
2023-05-12T11:26:41.677Z,101467.66
2023-05-12T11:29:08.951Z,101465.06
2023-05-12T11:31:36.082Z,101459.75
2023-05-12T11:34:12.099Z,101454.44
2023-05-12T11:36:45.520Z,101463.19
2023-05-12T11:39:21.221Z,101456.97
2023-05-12T11:41:48.844Z,101452.47
2023-05-12T11:44:21.956Z,101465.63
2023-05-12T11:46:59.850Z,101453.31
2023-05-12T11:49:28.778Z,101457.59
2023-05-12T11:51:57.439Z,101440.16
2023-05-12T11:54:25.552Z,101446.22
2023-05-12T11:56:53.994Z,101442.56
2023-05-12T11:59:33.151Z,101434.66
2023-05-12T12:02:02.228Z,101428.41
2023-05-12T12:04:33.820Z,101443.25
2023-05-12T12:07:01.622Z,101434.59
2023-05-12T12:09:35.408Z,101440.63
2023-05-12T12:12:04.794Z,101435.31
2023-05-12T12:14:33.245Z,101435.47
2023-05-12T12:17:00.569Z,101422.00
2023-05-12T12:19:28.222Z,101429.94
2023-05-12T12:21:57.032Z,101427.47
2023-05-12T12:24:25.735Z,101428.22
2023-05-12T12:26:52.976Z,101431.97
2023-05-12T12:29:20.486Z,101434.66
2023-05-12T12:31:47.675Z,101438.25
2023-05-12T12:34:14.904Z,101433.84
2023-05-12T12:36:41.882Z,101431.28
2023-05-12T12:39:09.177Z,101428.63
2023-05-12T12:41:36.532Z,101436.56
2023-05-12T12:44:04.093Z,101435.66
2023-05-12T12:46:31.217Z,101434.81
2023-05-12T12:48:58.863Z,101440.09
2023-05-12T12:51:38.516Z,101387.34
2023-05-12T12:54:11.855Z,101434.00
2023-05-12T12:56:39.497Z,101440.25
2023-05-12T12:59:07.949Z,101438.41
2023-05-12T13:01:35.521Z,101433.09
2023-05-12T13:04:02.651Z,101441.00
2023-05-12T13:06:30.238Z,101442.75
2023-05-12T13:08:58.371Z,101421.56
2023-05-12T13:11:33.494Z,101428.56
2023-05-12T13:14:02.986Z,101427.72
2023-05-12T13:16:30.384Z,101423.31
2023-05-12T13:18:57.859Z,101438.28
2023-05-12T13:21:25.218Z,101425.97
2023-05-12T13:23:52.262Z,101435.69
2023-05-12T13:26:24.753Z,101434.03
2023-05-12T13:28:52.221Z,101438.44
2023-05-12T13:31:19.381Z,101438.41
2023-05-12T13:33:46.453Z,101435.84
2023-05-12T13:36:14.437Z,101440.25
2023-05-12T13:38:41.689Z,101439.38
2023-05-12T13:41:09.564Z,101444.72
2023-05-12T13:43:36.972Z,101439.44
2023-05-12T13:46:04.442Z,101442.09
2023-05-12T13:48:31.545Z,101433.31
2023-05-12T13:50:58.785Z,101438.63
2023-05-12T13:53:25.904Z,101448.28
2023-05-12T13:55:52.819Z,101449.16
2023-05-12T13:58:20.607Z,101453.56
2023-05-12T14:00:48.333Z,101444.75
2023-05-12T14:03:16.417Z,101450.06
2023-05-12T14:05:43.931Z,101442.13
2023-05-12T14:08:14.329Z,101443.88
2023-05-12T14:10:41.362Z,101441.28
2023-05-12T14:13:08.796Z,101435.91
2023-05-12T14:15:47.752Z,101429.66
2023-05-12T14:18:16.517Z,101434.88
2023-05-12T14:20:44.599Z,101414.41
2023-05-12T14:23:12.191Z,101421.19
2023-05-12T14:25:39.877Z,101419.28
2023-05-12T14:28:10.422Z,101411.97
2023-05-12T14:30:37.794Z,101403.88
2023-05-12T14:33:05.142Z,101412.72
2023-05-12T14:35:33.163Z,101416.44
2023-05-12T14:38:00.148Z,101412.00
2023-05-12T14:40:27.666Z,101402.94
2023-05-12T14:42:57.079Z,101401.16
2023-05-12T14:45:28.808Z,101393.94
2023-05-12T14:47:56.110Z,101393.97
2023-05-12T14:50:23.647Z,101391.59
2023-05-12T14:52:50.708Z,101401.47
2023-05-12T14:55:18.036Z,101403.31
2023-05-12T14:57:45.280Z,101402.34
2023-05-12T15:00:13.578Z,101396.81
2023-05-12T15:02:41.356Z,101399.50
2023-05-12T15:05:09.434Z,101392.53
2023-05-12T15:07:40.450Z,101398.75
2023-05-12T15:10:08.013Z,101404.19
2023-05-12T15:12:35.161Z,101418.69
2023-05-12T15:15:05.333Z,101425.03
2023-05-12T15:17:32.612Z,101433.84
2023-05-12T15:19:59.785Z,101449.81
2023-05-12T15:22:27.052Z,101456.94
2023-05-12T15:24:54.283Z,101461.41
2023-05-12T15:27:21.289Z,101472.97
2023-05-12T15:29:48.277Z,101480.91
2023-05-12T15:32:16.027Z,101479.13
2023-05-12T15:34:43.329Z,101487.03
2023-05-12T15:37:12.142Z,101494.06
2023-05-12T15:39:39.524Z,101487.78
2023-05-12T15:42:07.407Z,101498.28
2023-05-12T15:44:35.383Z,101494.72
2023-05-12T15:47:02.579Z,101492.94
2023-05-12T15:49:29.870Z,101498.19
2023-05-12T15:51:57.016Z,101496.38
2023-05-12T15:54:25.222Z,101503.31
2023-05-12T15:56:52.564Z,101512.09
2023-05-12T15:59:20.229Z,101512.97
2023-05-12T16:01:47.286Z,101513.81
2023-05-12T16:04:14.476Z,101510.25
2023-05-12T16:06:41.784Z,101512.84
2023-05-12T16:09:09.605Z,101513.75
2023-05-12T16:11:37.037Z,101519.03
2023-05-12T16:14:04.110Z,101524.19
2023-05-12T16:16:31.302Z,101527.72
2023-05-12T16:18:58.533Z,101528.69
2023-05-12T16:21:25.856Z,101526.00
2023-05-12T16:23:53.215Z,101532.16
2023-05-12T16:26:20.332Z,101533.03
2023-05-12T16:28:48.449Z,101525.97
2023-05-12T16:31:18.644Z,101521.53
2023-05-12T16:33:46.478Z,101522.47
2023-05-12T16:36:16.112Z,101518.84
2023-05-12T16:38:51.005Z,101524.91
2023-05-12T16:41:18.909Z,101526.56
2023-05-12T16:43:46.751Z,101525.72
2023-05-12T16:46:14.246Z,101528.44
2023-05-12T16:48:41.648Z,101531.84
2023-05-12T16:51:10.490Z,101529.19
2023-05-12T16:53:38.966Z,101525.00
2023-05-12T16:56:06.849Z,101525.78
2023-05-12T16:58:34.239Z,101531.06
2023-05-12T17:01:09.169Z,101530.19
2023-05-12T17:03:37.616Z,101526.72
2023-05-12T17:06:05.979Z,101527.59
2023-05-12T17:08:37.190Z,101528.50
2023-05-12T17:11:05.379Z,101535.47
2023-05-12T17:13:35.338Z,101544.28
2023-05-12T17:16:02.575Z,101547.84
2023-05-12T17:18:29.823Z,101559.28
2023-05-12T17:21:03.108Z,101565.16
2023-05-12T17:23:36.940Z,101564.28
2023-05-12T17:26:05.068Z,101568.56
2023-05-12T17:28:32.912Z,101574.69
2023-05-12T17:31:01.904Z,101571.97
2023-05-12T17:33:30.112Z,101561.38
2023-05-12T17:36:10.893Z,101570.09
2023-05-12T17:38:40.521Z,101601.50
2023-05-12T17:41:07.660Z,101609.28
2023-05-12T17:44:16.432Z,101624.66
2023-05-12T17:46:44.628Z,101656.34
2023-05-12T17:49:13.066Z,101644.72
2023-05-12T17:51:40.392Z,101645.31
2023-05-12T17:54:07.470Z,101644.22
2023-05-12T17:56:34.968Z,101634.34
2023-05-12T17:59:02.173Z,101637.75
2023-05-12T18:01:29.517Z,101639.34
2023-05-12T18:03:57.054Z,101644.63
2023-05-12T18:06:24.584Z,101640.09
2023-05-12T18:08:52.506Z,101644.50
2023-05-12T18:11:20.252Z,101647.84
2023-05-12T18:13:47.313Z,101646.88
2023-05-12T18:16:27.599Z,101639.78
2023-05-12T18:18:57.308Z,101638.75
2023-05-12T18:21:25.215Z,101634.34
2023-05-12T18:23:53.472Z,101632.50
2023-05-12T18:26:25.632Z,101629.84
2023-05-12T18:28:53.352Z,101638.53
2023-05-12T18:31:21.218Z,101633.28
2023-05-12T18:33:50.564Z,101623.50
2023-05-12T18:36:18.385Z,101621.75
2023-05-12T18:38:46.543Z,101620.91
2023-05-12T18:41:14.213Z,101624.41
2023-05-12T18:43:43.522Z,101632.84
2023-05-12T18:46:10.954Z,101638.06
2023-05-12T18:48:38.636Z,101642.28
2023-05-12T18:51:06.016Z,101651.84
2023-05-12T18:53:34.315Z,101652.66
2023-05-12T18:56:02.195Z,101650.13
2023-05-12T18:58:29.532Z,101651.81
2023-05-12T19:00:56.863Z,101661.38
2023-05-12T19:03:24.485Z,101662.16
2023-05-12T19:05:51.735Z,101665.69
2023-05-12T19:08:20.244Z,101671.69
2023-05-12T19:10:48.085Z,101681.34
2023-05-12T19:13:15.558Z,101684.78
2023-05-12T19:15:43.773Z,101695.22
2023-05-12T19:18:11.178Z,101699.38
2023-05-12T19:20:38.647Z,101708.09
2023-05-12T19:23:05.930Z,101700.28
2023-05-12T19:25:33.280Z,101696.75
2023-05-12T19:28:00.678Z,101694.22
2023-05-12T19:30:29.307Z,101694.13
2023-05-12T19:32:56.578Z,101701.16
2023-05-12T19:35:24.129Z,101704.59
2023-05-12T19:37:51.292Z,101694.19
2023-05-12T19:40:18.623Z,101694.97
2023-05-12T19:42:45.839Z,101695.88
2023-05-12T19:45:13.151Z,101699.34
2023-05-12T19:47:40.439Z,101708.09
2023-05-12T19:50:08.098Z,101710.72
2023-05-12T19:52:35.462Z,101712.50
2023-05-12T19:55:02.508Z,101709.75
2023-05-12T19:57:29.945Z,101714.06
2023-05-12T19:59:57.309Z,101725.34
2023-05-12T20:02:31.082Z,101718.31
2023-05-12T20:05:01.648Z,101718.31
2023-05-12T20:07:29.373Z,101722.72
2023-05-12T20:10:02.231Z,101721.78
2023-05-12T20:12:30.247Z,101720.06
2023-05-12T20:14:57.715Z,101724.38
2023-05-12T20:17:25.805Z,101726.94
2023-05-12T20:19:54.134Z,101714.75
2023-05-12T20:22:22.885Z,101724.44
2023-05-12T20:24:52.040Z,101730.44
2023-05-12T20:27:19.276Z,101727.78
2023-05-12T20:29:49.797Z,101725.25
2023-05-12T20:32:16.933Z,101727.84
2023-05-12T20:34:44.143Z,101731.25
2023-05-12T20:37:17.998Z,101726.81
2023-05-12T20:39:48.451Z,101734.81
2023-05-12T20:42:15.942Z,101734.00
2023-05-12T20:45:06.026Z,101743.47
2023-05-12T20:47:38.518Z,101738.28
2023-05-12T20:50:09.940Z,101739.97
2023-05-12T20:52:37.864Z,101743.25
2023-05-12T20:55:05.517Z,101744.97
2023-05-12T20:57:33.041Z,101753.69
2023-05-12T21:00:00.795Z,101759.81
2023-05-12T21:02:29.296Z,101760.69
2023-05-12T21:04:58.193Z,101760.69
2023-05-12T21:07:25.758Z,101760.56
2023-05-12T21:09:53.225Z,101762.34
2023-05-12T21:12:20.624Z,101763.19
2023-05-12T21:14:47.748Z,101754.44
2023-05-12T21:17:16.989Z,101761.34
2023-05-12T21:19:44.684Z,101763.84
2023-05-12T21:22:13.086Z,101755.00
2023-05-12T21:24:40.427Z,101745.06
2023-05-12T21:27:08.578Z,101757.38
2023-05-12T21:29:36.743Z,101759.91
2023-05-12T21:32:04.137Z,101757.06
2023-05-12T21:34:33.901Z,101762.22
2023-05-12T21:37:01.134Z,101763.94
2023-05-12T21:39:28.376Z,101749.91
2023-05-12T21:41:55.429Z,101749.91
2023-05-12T21:44:22.557Z,101754.97
2023-05-12T21:46:49.624Z,101751.47
2023-05-12T21:49:16.666Z,101749.50
2023-05-12T21:51:43.877Z,101747.50
2023-05-12T21:54:11.365Z,101747.47
2023-05-12T21:56:38.714Z,101750.72
2023-05-12T21:59:06.062Z,101750.75
2023-05-12T22:01:33.930Z,101748.88
2023-05-12T22:04:01.433Z,101753.19
2023-05-12T22:06:28.762Z,101751.13
2023-05-12T22:08:56.296Z,101753.59
2023-05-12T22:11:23.822Z,101757.03
2023-05-12T22:13:51.410Z,101760.50
2023-05-12T22:16:23.587Z,101753.47
2023-05-12T22:18:53.165Z,101755.09
2023-05-12T22:21:20.261Z,101751.47
2023-05-12T22:23:47.303Z,101748.72
2023-05-12T22:26:14.496Z,101752.94
2023-05-12T22:28:41.671Z,101747.50
2023-05-12T22:31:08.843Z,101750.81
2023-05-12T22:33:35.969Z,101753.28
2023-05-12T22:36:03.522Z,101754.06
2023-05-12T22:38:30.776Z,101755.78
2023-05-12T22:40:58.240Z,101760.94
2023-05-12T22:43:25.492Z,101758.22
2023-05-12T22:45:52.962Z,101766.03
2023-05-12T22:48:20.444Z,101759.81
2023-05-12T22:50:47.768Z,101757.88
2023-05-12T22:53:17.835Z,101765.69
2023-05-12T22:55:44.994Z,101765.38
2023-05-12T22:58:12.732Z,101767.94
2023-05-12T23:00:39.822Z,101767.84
2023-05-12T23:03:10.154Z,101763.44
2023-05-12T23:05:37.417Z,101759.84
2023-05-12T23:08:04.545Z,101758.66
2023-05-12T23:10:31.802Z,101756.59
2023-05-12T23:12:59.083Z,101756.88
2023-05-12T23:15:26.190Z,101750.53
2023-05-12T23:17:54.115Z,101754.75
2023-05-12T23:20:21.627Z,101750.41
2023-05-12T23:22:49.000Z,101746.03
2023-05-12T23:25:16.227Z,101747.63
2023-05-12T23:27:43.454Z,101744.88
2023-05-12T23:30:10.766Z,101749.97
2023-05-12T23:32:38.077Z,101743.78
2023-05-12T23:35:05.928Z,101745.63
2023-05-12T23:37:33.287Z,101741.28
2023-05-12T23:40:00.559Z,101740.44
2023-05-12T23:42:28.128Z,101733.22
2023-05-12T23:44:55.405Z,101739.13
2023-05-12T23:47:23.203Z,101741.63
2023-05-12T23:49:50.362Z,101740.63
2023-05-12T23:52:17.555Z,101737.03
2023-05-12T23:54:44.673Z,101728.22
2023-05-12T23:57:11.754Z,101727.19
2023-05-12T23:59:39.296Z,101724.22
